Mariarade, Netherlands
Current Conditions -  °F | °C
As of 3:50 PM on Tuesday 21 Oct 2014 (Local Time) from ETNG Reporting Station
Rain Showers Rain Showers  
Wind Chill: 57°   Ceiling: 2000
Heat Index: 57°   Visibility: 6mi
Dew Point: 54°   Wind: 20mph
Humidity: 88%   Direction: 250°WSW
Pressure: 29.53"   Gusts: 39mph
Location:  50.93°N, 5.93°E
Report Text: ETNG 211350Z 25017G34KT 9999 -SHRA FEW015CB BKN020 BKN025 14/12 Q1000 RERA
Loading
Personal Weather Stations






























Interactive Weather Map
Tropical Storm Tracking
New forecast layout! Learn more

10-Day Weather Forecast

Advertisements
Track Severe Weather on mobile